Thursday, September 20, 2018, 1:09 PM EDT
Back to Local

KRKD, Rockland, Knox County Regional Airport

Location: Owls Head, ME, United States Lat: 44.067
Local Time: 1:09 PM EDT (17:09 GMT) Lon: -69.1
Time Zone: US/Eastern Elev: 55 ft

Show me the last for .
Show Decoded

2018-09-20 12:56 METAR KRKD 201656Z AUTO 00000KT 10SM CLR 13/09 A3030 RMK AO2 SLP263 T01330094 =
2018-09-20 12:46 METAR KRKD 201646Z AUTO 00000KT 10SM FEW012 13/10 A3030 RMK AO2 =
2018-09-20 11:56 METAR KRKD 201556Z AUTO VRB06KT 10SM OVC012 13/10 A3031 RMK AO2 SLP266 T01280100
                 =
2018-09-20 10:56 METAR KRKD 201456Z AUTO VRB05KT 10SM OVC012 13/10 A3030 RMK AO2 SLP263 T01280100
                 50018 =
2018-09-20 09:56 METAR KRKD 201356Z AUTO 04007KT 10SM OVC012 12/10 A3031 RMK AO2 SLP265 T01220100
                 =
2018-09-20 08:56 METAR KRKD 201256Z AUTO VRB04KT 10SM OVC012 12/10 A3027 RMK AO2 SLP253 T01170100
                 =
2018-09-20 07:56 METAR KRKD 201156Z AUTO 04006KT 10SM OVC012 12/10 A3025 RMK AO2 SLP245 70001
                 T01220100 10128 20117 53019 =
2018-09-20 06:56 METAR KRKD 201056Z AUTO VRB05KT 10SM BKN012 OVC055 12/10 A3022 RMK AO2 SLP235
                 T01220100 =
2018-09-20 06:05 METAR KRKD 201005Z AUTO 04004KT 10SM BKN014 OVC050 12/10 A3020 RMK AO2 =
2018-09-20 05:56 METAR KRKD 200956Z AUTO 04006KT 10SM SCT016 OVC050 12/10 A3020 RMK AO2 SLP227
                 T01220100 =
2018-09-20 04:56 METAR KRKD 200856Z AUTO 05005KT 10SM FEW018 BKN035 OVC050 13/10 A3019 RMK AO2
                 SLP226 T01280100 53010 =
2018-09-20 03:56 METAR KRKD 200756Z AUTO 05006KT 10SM SCT033 OVC055 13/11 A3017 RMK AO2 SLP219
                 T01280106 =
2018-09-20 02:56 METAR KRKD 200656Z AUTO 04007KT 10SM SCT016 BKN032 OVC055 13/11 A3016 RMK AO2
                 SLP215 T01280111 =
2018-09-20 01:56 METAR KRKD 200556Z AUTO 04006KT 10SM BKN016 BKN020 OVC029 13/12 A3016 RMK AO2
                 SLP216 60001 T01280117 10150 20128 53011 =
2018-09-20 01:10 METAR KRKD 200510Z AUTO 05008G14KT 10SM FEW011 BKN022 OVC030 13/12 A3015 RMK AO2
                 =
2018-09-20 00:56 METAR KRKD 200456Z AUTO VRB05KT 10SM BKN014 BKN021 OVC026 13/12 A3015 RMK AO2
                 SLP211 T01280122 401670122 =
2018-09-20 00:38 METAR KRKD 200438Z AUTO 05010G14KT 8SM BKN014 OVC022 13/12 A3015 RMK AO2 =
2018-09-20 00:14 METAR KRKD 200414Z AUTO 05006KT 10SM FEW006 BKN016 OVC035 13/13 A3015 RMK AO2 =
2018-09-20 00:03 METAR KRKD 200403Z AUTO 05007KT 8SM BKN009 BKN012 OVC035 13/13 A3014 RMK AO2 CIG
                 005V012 =
2018-09-19 23:56 METAR KRKD 200356Z AUTO 05006KT 10SM SCT012 BKN024 OVC035 13/13 A3014 RMK AO2
                 RAE35 SLP209 P0001 T01330128 =
2018-09-19 23:25 METAR KRKD 200325Z AUTO 06008G14KT 3SM -RA BR FEW004 SCT009 OVC016 13/13 A3013
                 RMK AO2 P0001 =
2018-09-19 22:56 METAR KRKD 200256Z AUTO 05008KT 7SM -RA OVC014 14/13 A3013 RMK AO2 RAB56 SLP205
                 P0000 60000 T01440128 51007 =
2018-09-19 21:56 METAR KRKD 200156Z AUTO 04008KT 010V070 10SM BKN016 OVC021 15/13 A3012 RMK AO2
                 SLP200 T01500128 =
2018-09-19 19:56 METAR KRKD 192356Z AUTO VRB06KT 10SM BKN011 BKN017 OVC022 14/13 A3009 RMK AO2
                 RAB07E24 SLP190 P0000 60000 T01440133 10167 20144 51025 =
2018-09-19 19:14 METAR KRKD 192314Z AUTO VRB04KT 9SM -RA BKN013 OVC021 14/13 A3007 RMK AO2 RAB07
                 P0000 =
2018-09-19 18:56 METAR KRKD 192256Z AUTO VRB03KT 10SM SCT012 BKN017 OVC035 14/13 A3007 RMK AO2
                 RAB26E40 SLP183 P0000 T01440133 =
2018-09-19 18:31 METAR KRKD 192231Z AUTO VRB05KT 3SM -RA BR FEW007 BKN014 OVC026 14/13 A3007 RMK
                 AO2 RAB26 P0000 =
2018-09-19 17:56 METAR KRKD 192156Z AUTO VRB05KT 10SM BKN015 BKN021 OVC027 15/13 A3005 RMK AO2
                 SLP177 T01500128 =
2018-09-19 16:56 METAR KRKD 192056Z AUTO 03007KT 350V070 10SM SCT014 OVC021 16/13 A3001 RMK AO2
                 SLP165 T01560128 53003 =
2018-09-19 15:56 METAR KRKD 191956Z AUTO VRB05KT 10SM BKN026 OVC032 16/12 A3001 RMK AO2 SLP162
                 T01610122 =
2018-09-19 14:56 METAR KRKD 191856Z AUTO 04009KT 10SM FEW017 OVC024 16/12 A3000 RMK AO2 SLP160
                 T01610122 =
2018-09-19 13:56 METAR KRKD 191756Z AUTO VRB04KT 10SM BKN015 OVC021 15/12 A3000 RMK AO2 SLP161
                 60000 T01500122 10161 20128 50004 =

Support USWX by starting your Amazon purchase here.